Time;durP1;ratioP1;P1;durP2;ratioP2;P2;SDS_P1;SDS_P2;PMS_P1;PMS_P2;Temp;Humidity;BMP_temperature;BMP_pressure;BME280_temperature;BME280_humidity;BME280_pressure;Samples;Min_cycle;Max_cycle;Signal;HPM_P1;HPM_P2
2023/02/12 00:01:49;;;;;;;33.58;19.38;;;;;;;4.36;72.04;101606.06;5045815;28;20082;-68
2023/02/12 00:04:15;;;;;;;35.00;19.05;;;;;;;4.45;73.61;101611.00;5046098;28;20043;-68
2023/02/12 00:06:41;;;;;;;38.42;20.58;;;;;;;4.70;74.61;101611.66;5039580;28;20021;-68
2023/02/12 00:09:06;;;;;;;34.42;19.23;;;;;;;4.61;74.78;101604.09;5043481;28;20028;-68
2023/02/12 00:11:32;;;;;;;39.65;21.13;;;;;;;4.51;75.28;101582.38;5042511;28;20029;-67
2023/02/12 00:13:58;;;;;;;36.40;19.75;;;;;;;4.61;76.09;101602.28;5044874;28;20078;-68
2023/02/12 00:16:26;;;;;;;39.40;21.02;;;;;;;4.62;77.35;101614.66;5035354;28;20036;-68
2023/02/12 00:18:53;;;;;;;34.40;20.80;;;;;;;4.48;77.75;101593.13;5044848;28;20031;-68
2023/02/12 00:21:20;;;;;;;37.88;20.13;;;;;;;4.73;77.45;101590.28;5047266;28;20041;-68
2023/02/12 00:23:45;;;;;;;35.58;20.75;;;;;;;4.75;77.27;101596.41;5045859;28;21901;-68
2023/02/12 00:26:14;;;;;;;35.22;20.17;;;;;;;4.65;78.44;101605.69;5041110;28;20065;-68
2023/02/12 00:28:40;;;;;;;34.72;20.25;;;;;;;4.48;78.26;101616.16;5065319;28;20036;-68
2023/02/12 00:31:11;;;;;;;35.97;20.52;;;;;;;4.37;78.51;101610.44;5033449;28;20036;-68
2023/02/12 00:33:37;;;;;;;35.78;20.80;;;;;;;4.35;78.72;101629.09;5043018;28;20087;-68
2023/02/12 00:36:03;;;;;;;35.40;19.88;;;;;;;4.29;79.12;101628.50;5042591;28;20460;-68
2023/02/12 00:38:29;;;;;;;33.45;19.92;;;;;;;4.30;79.35;101639.06;5040802;28;20045;-68
2023/02/12 00:40:54;;;;;;;35.92;20.60;;;;;;;4.28;79.45;101640.03;5049637;28;20056;-68
2023/02/12 00:43:20;;;;;;;39.25;22.02;;;;;;;4.26;79.74;101631.28;5047731;28;20036;-68
2023/02/12 00:45:46;;;;;;;37.08;20.55;;;;;;;4.21;79.88;101633.25;5047138;28;20554;-68
2023/02/12 00:48:13;;;;;;;34.40;20.00;;;;;;;4.15;80.13;101631.72;5040962;28;20024;-68
2023/02/12 00:50:40;;;;;;;34.40;19.20;;;;;;;4.07;80.43;101622.34;5048674;28;20111;-68
2023/02/12 00:53:06;;;;;;;32.47;19.58;;;;;;;4.13;80.34;101638.03;5051285;28;20423;-68
2023/02/12 00:55:32;;;;;;;33.13;19.10;;;;;;;4.06;80.64;101628.56;5051738;28;20076;-69
2023/02/12 00:57:57;;;;;;;31.75;19.38;;;;;;;4.05;81.68;101637.44;5049945;28;20143;-68
2023/02/12 01:00:23;;;;;;;36.67;21.05;;;;;;;4.00;82.50;101642.09;5049160;28;20120;-68
2023/02/12 01:02:49;;;;;;;38.22;21.70;;;;;;;3.93;82.71;101632.63;5049195;28;20025;-68
2023/02/12 01:05:14;;;;;;;37.67;21.27;;;;;;;3.94;83.51;101645.00;5044807;28;20025;-68
2023/02/12 01:07:39;;;;;;;37.05;20.73;;;;;;;3.79;84.23;101624.34;5049770;28;20060;-68
2023/02/12 01:10:07;;;;;;;35.92;20.75;;;;;;;3.87;85.16;101648.81;5048570;28;20029;-68
2023/02/12 01:12:32;;;;;;;36.53;21.45;;;;;;;3.88;85.83;101647.88;5049612;28;20032;-69
2023/02/12 01:14:58;;;;;;;42.33;21.35;;;;;;;3.80;86.14;101648.16;5048198;28;20032;-68
2023/02/12 01:17:23;;;;;;;37.92;22.27;;;;;;;3.74;86.37;101640.44;5045947;28;20060;-69
2023/02/12 01:19:49;;;;;;;36.33;20.25;;;;;;;3.80;86.76;101648.16;5032603;28;20033;-68
2023/02/12 01:22:15;;;;;;;35.65;20.48;;;;;;;3.79;86.97;101650.88;5049270;28;20033;-68
2023/02/12 01:24:41;;;;;;;41.95;21.88;;;;;;;3.80;87.83;101610.16;5044082;28;20530;-68
2023/02/12 01:27:06;;;;;;;38.08;21.55;;;;;;;3.93;88.80;101643.25;5043049;28;20037;-68
2023/02/12 01:29:31;;;;;;;36.55;22.08;;;;;;;3.83;88.93;101645.41;5074747;28;20025;-68
2023/02/12 01:31:57;;;;;;;35.58;20.60;;;;;;;3.80;88.53;101645.53;5041645;28;20043;-68
2023/02/12 01:34:22;;;;;;;37.72;22.08;;;;;;;3.76;88.53;101646.56;5043306;28;20025;-68
2023/02/12 01:36:48;;;;;;;39.10;20.92;;;;;;;3.75;88.51;101644.84;5044916;28;20097;-68
2023/02/12 01:39:13;;;;;;;34.95;20.70;;;;;;;3.75;88.94;101643.97;5048524;28;20033;-68
2023/02/12 01:41:42;;;;;;;35.15;20.75;;;;;;;3.74;89.61;101644.91;5055066;28;20032;-69
2023/02/12 01:44:10;;;;;;;36.75;21.42;;;;;;;3.73;89.89;101644.03;5047646;28;20025;-69
2023/02/12 01:46:36;;;;;;;35.28;20.25;;;;;;;3.70;90.36;101637.97;5042856;28;20033;-68
2023/02/12 01:49:04;;;;;;;40.13;20.48;;;;;;;3.67;89.93;101638.97;5048669;28;20039;-68
2023/02/12 01:51:30;;;;;;;37.05;21.90;;;;;;;3.69;90.48;101638.91;5045902;28;20052;-68
2023/02/12 01:54:01;;;;;;;37.22;20.10;;;;;;;3.70;90.93;101638.84;5036473;28;20045;-69
2023/02/12 01:56:27;;;;;;;38.20;21.50;;;;;;;3.66;90.89;101633.72;5037560;28;20531;-68
2023/02/12 01:58:56;;;;;;;34.70;20.58;;;;;;;3.69;91.41;101638.91;5049930;28;20388;-69
2023/02/12 02:01:26;;;;;;;38.75;22.08;;;;;;;3.69;91.79;101638.91;5048816;28;20017;-68
2023/02/12 02:03:56;;;;;;;36.83;20.85;;;;;;;3.73;91.83;101653.78;5048162;28;20098;-68
2023/02/12 02:06:28;;;;;;;34.92;20.83;;;;;;;3.69;92.29;101646.88;5046856;28;20063;-68
2023/02/12 02:08:55;;;;;;;36.80;20.88;;;;;;;3.66;92.00;101637.25;5050992;28;20094;-68
2023/02/12 02:17:22;;;;;;;44.55;23.05;;;;;;;3.61;91.84;101665.72;5044099;28;20032;-68
2023/02/12 02:20:03;;;;;;;42.10;23.05;;;;;;;3.59;91.69;101677.31;5042999;28;20039;-68
2023/02/12 02:23:05;;;;;;;43.30;22.35;;;;;;;3.55;91.83;101678.38;5048809;28;20029;-69
2023/02/12 02:25:36;;;;;;;40.50;23.23;;;;;;;3.53;91.79;101675.75;5048587;28;20527;-69
2023/02/12 02:28:20;;;;;;;41.08;22.58;;;;;;;3.46;91.60;101689.31;5058002;28;20046;-68
2023/02/12 02:30:52;;;;;;;42.72;22.95;;;;;;;3.40;90.78;101686.88;5046955;28;20025;-69
2023/02/12 02:33:31;;;;;;;38.45;22.70;;;;;;;3.36;90.54;101699.41;5047557;28;21028;-68
2023/02/12 02:36:11;;;;;;;37.75;22.08;;;;;;;3.23;90.26;101698.09;5048177;28;20120;-68
2023/02/12 02:39:16;;;;;;;35.08;20.13;;;;;;;3.08;90.55;101700.41;5047108;28;20074;-69
2023/02/12 02:42:18;;;;;;;40.58;21.40;;;;;;;2.96;90.03;101714.13;5037614;28;20073;-68
2023/02/12 02:45:17;;;;;;;38.78;21.90;;;;;;;2.82;90.20;101711.94;5042680;28;20032;-68
2023/02/12 02:47:59;;;;;;;37.25;20.50;;;;;;;2.72;90.31;101715.81;5052730;28;20150;-68
2023/02/12 02:50:28;;;;;;;41.60;21.88;;;;;;;2.57;89.31;101699.56;5050049;28;20029;-68
2023/02/12 02:53:02;;;;;;;37.80;21.83;;;;;;;2.50;89.68;101703.31;5039077;28;20044;-68
2023/02/12 02:55:32;;;;;;;40.63;22.08;;;;;;;2.45;90.53;101714.03;5043112;28;20060;-68
2023/02/12 02:58:07;;;;;;;40.00;22.38;;;;;;;2.25;90.54;101704.13;5044384;28;20143;-68
2023/02/12 03:01:00;;;;;;;38.83;22.02;;;;;;;2.22;91.08;101717.44;5044693;28;20598;-69
2023/02/12 03:03:37;;;;;;;39.28;22.50;;;;;;;2.08;91.22;101716.13;5055867;28;20033;-68
2023/02/12 03:06:17;;;;;;;38.60;22.98;;;;;;;1.99;90.84;101722.59;5045993;28;20487;-68
2023/02/12 03:08:52;;;;;;;39.95;21.88;;;;;;;1.93;90.95;101721.88;5048192;28;20032;-68
2023/02/12 03:11:27;;;;;;;43.40;23.52;;;;;;;1.87;93.91;101704.44;5047996;28;20373;-68
2023/02/12 03:14:18;;;;;;;41.63;23.17;;;;;;;2.04;96.13;101725.94;5045577;28;20033;-68
2023/02/12 03:17:03;;;;;;;45.42;24.02;;;;;;;2.02;97.87;101725.13;5044499;28;20483;-68
2023/02/12 03:19:40;;;;;;;43.10;22.90;;;;;;;1.95;97.39;101731.53;5041616;28;20029;-68
2023/02/12 03:22:14;;;;;;;45.03;24.25;;;;;;;1.85;96.08;101735.38;5049181;28;20025;-68
2023/02/12 03:24:54;;;;;;;44.08;23.67;;;;;;;1.84;95.88;101749.47;5045070;28;20560;-68
2023/02/12 03:27:32;;;;;;;46.72;23.63;;;;;;;1.78;95.29;101739.06;5060022;28;20039;-67
2023/02/12 03:29:59;;;;;;;42.85;24.08;;;;;;;1.63;95.35;101736.91;5047936;28;20033;-68
2023/02/12 03:32:29;;;;;;;41.85;23.75;;;;;;;1.58;94.92;101741.44;5048307;28;20029;-68
2023/02/12 03:35:36;;;;;;;45.75;23.88;;;;;;;1.48;94.33;101750.53;5046274;28;20064;-68
2023/02/12 03:38:22;;;;;;;42.35;23.17;;;;;;;1.40;94.00;101744.63;5047929;28;20048;-68
2023/02/12 03:40:59;;;;;;;40.78;20.92;;;;;;;1.34;94.71;101751.84;5031496;28;20039;-68
2023/02/12 03:43:32;;;;;;;43.35;23.58;;;;;;;1.24;95.67;101751.22;5045709;28;20078;-68
2023/02/12 03:46:33;;;;;;;41.25;22.20;;;;;;;1.19;95.25;101757.56;5044662;28;20109;-68
2023/02/12 03:49:05;;;;;;;44.45;22.20;;;;;;;1.06;94.66;101756.13;5041274;28;20434;-68
2023/02/12 03:51:38;;;;;;;42.17;23.02;;;;;;;1.05;95.19;101773.75;5044968;28;20029;-68
2023/02/12 03:54:06;;;;;;;45.20;22.53;;;;;;;0.98;95.31;101780.09;5063694;28;20049;-69
2023/02/12 03:56:40;;;;;;;42.95;22.40;;;;;;;0.91;95.39;101782.94;5048803;28;20431;-68
2023/02/12 03:59:06;;;;;;;41.10;22.45;;;;;;;0.77;95.82;101774.50;5046813;28;20060;-68
2023/02/12 04:01:33;;;;;;;44.35;23.00;;;;;;;0.82;95.99;101802.53;5039378;28;20031;-68
2023/02/12 04:04:03;;;;;;;42.75;22.27;;;;;;;0.76;96.58;101788.59;5047239;28;20033;-68
2023/02/12 04:06:29;;;;;;;43.90;22.73;;;;;;;0.70;96.50;101794.88;5036255;28;20476;-68
2023/02/12 04:08:58;;;;;;;40.10;22.10;;;;;;;0.65;96.48;101803.81;5059440;28;20079;-68
2023/02/12 04:11:52;;;;;;;43.25;22.88;;;;;;;0.59;95.93;101801.31;5081701;28;20060;-69
2023/02/12 04:14:43;;;;;;;38.33;20.92;;;;;;;0.58;95.90;101803.09;5048883;28;20543;-68
2023/02/12 04:17:13;;;;;;;37.22;21.58;;;;;;;0.53;96.08;101815.53;5051041;28;20041;-68
2023/02/12 04:19:45;;;;;;;43.95;22.85;;;;;;;0.51;96.30;101805.94;5043394;28;20033;-68
2023/02/12 04:22:26;;;;;;;42.90;23.38;;;;;;;0.42;96.08;101814.91;5049736;28;20450;-68
2023/02/12 04:25:06;;;;;;;40.75;22.27;;;;;;;0.36;96.12;101820.34;5047687;28;20127;-68
2023/02/12 04:27:45;;;;;;;39.28;22.95;;;;;;;0.33;96.19;101817.78;5051959;28;20041;-68
2023/02/12 04:30:25;;;;;;;43.58;22.65;;;;;;;0.26;96.30;101821.44;5037595;28;20036;-68
2023/02/12 04:32:57;;;;;;;42.88;22.73;;;;;;;0.22;96.44;101830.31;5063202;28;20024;-68
2023/02/12 04:35:31;;;;;;;41.67;21.38;;;;;;;0.20;95.86;101840.03;5048572;28;20044;-69
2023/02/12 04:38:02;;;;;;;40.92;21.95;;;;;;;0.12;96.11;101841.09;5045099;28;20483;-69
2023/02/12 04:40:29;;;;;;;40.97;21.85;;;;;;;0.09;95.95;101855.22;5049532;28;20400;-68
2023/02/12 04:42:54;;;;;;;43.60;21.55;;;;;;;0.02;95.70;101845.69;5052221;28;20029;-68
2023/02/12 04:45:24;;;;;;;39.17;20.90;;;;;;;-0.02;95.96;101837.00;5049441;28;20474;-68
2023/02/12 04:47:50;;;;;;;44.47;22.63;;;;;;;-0.06;96.25;101850.25;5044827;28;20586;-69
2023/02/12 04:50:16;;;;;;;42.97;22.05;;;;;;;-0.08;95.90;101854.69;5043780;28;20115;-68
2023/02/12 04:52:42;;;;;;;43.55;21.60;;;;;;;-0.14;95.74;101852.16;5053526;28;20059;-68
2023/02/12 04:55:07;;;;;;;42.60;22.20;;;;;;;-0.13;95.88;101861.81;5051610;28;20033;-69
2023/02/12 04:57:33;;;;;;;39.80;21.17;;;;;;;-0.18;96.27;101855.78;5052567;28;20048;-68
2023/02/12 04:59:58;;;;;;;39.38;20.65;;;;;;;-0.24;96.43;101854.13;5040315;28;20075;-68
2023/02/12 05:02:24;;;;;;;40.75;21.58;;;;;;;-0.30;96.34;101853.38;5038002;28;20035;-68
2023/02/12 05:04:49;;;;;;;45.30;24.08;;;;;;;-0.31;96.60;101862.19;5044777;28;20086;-68
2023/02/12 05:07:15;;;;;;;44.30;23.10;;;;;;;-0.37;96.70;101860.53;5055064;28;20473;-68
2023/02/12 05:09:41;;;;;;;40.88;21.27;;;;;;;-0.37;96.98;101867.56;5035083;28;20033;-68
2023/02/12 05:12:07;;;;;;;44.35;23.48;;;;;;;-0.50;96.77;101844.97;5051819;28;20516;-68
2023/02/12 05:14:32;;;;;;;47.75;24.58;;;;;;;-0.43;97.02;101868.56;5049287;28;20086;-69
2023/02/12 05:16:57;;;;;;;40.72;22.00;;;;;;;-0.46;96.94;101875.63;5047880;28;20082;-68
2023/02/12 05:19:23;;;;;;;43.20;21.65;;;;;;;-0.47;97.17;101881.81;5044253;28;20074;-68
2023/02/12 05:21:50;;;;;;;45.13;23.17;;;;;;;-0.47;97.53;101898.50;5048230;28;20387;-68
2023/02/12 05:24:15;;;;;;;47.42;23.95;;;;;;;-0.54;97.12;101885.44;5049467;28;20035;-68
2023/02/12 05:26:41;;;;;;;50.00;24.42;;;;;;;-0.52;97.53;101899.44;5047646;28;20029;-68
2023/02/12 05:29:06;;;;;;;45.92;23.42;;;;;;;-0.55;97.73;101895.09;5042403;28;21553;-68
2023/02/12 05:31:32;;;;;;;45.38;23.70;;;;;;;-0.57;98.01;101890.78;5044239;28;20036;-68
2023/02/12 05:33:57;;;;;;;48.90;25.83;;;;;;;-0.73;98.52;101861.19;5047540;28;20093;-69
2023/02/12 05:36:23;;;;;;;45.25;23.75;;;;;;;-0.65;98.78;101887.38;5044376;28;20032;-68
2023/02/12 05:38:50;;;;;;;48.03;25.10;;;;;;;-0.56;98.77;101910.94;5040993;28;20483;-68
2023/02/12 05:41:19;;;;;;;47.78;25.02;;;;;;;-0.58;98.79;101916.25;5043948;28;20060;-68
2023/02/12 05:43:45;;;;;;;46.30;24.60;;;;;;;-0.58;98.87;101926.78;5045930;28;20033;-69
2023/02/12 05:46:10;;;;;;;58.05;26.17;;;;;;;-0.65;98.22;101921.63;5046234;28;20032;-69
2023/02/12 05:48:37;;;;;;;50.72;25.75;;;;;;;-0.66;98.09;101927.81;5049284;28;20044;-69
2023/02/12 05:51:05;;;;;;;51.88;25.48;;;;;;;-0.69;98.19;101939.28;5043389;28;20032;-68
2023/02/12 05:53:31;;;;;;;52.92;25.90;;;;;;;-0.72;98.23;101944.59;5038706;28;20068;-68
2023/02/12 05:56:36;;;;;;;49.72;25.52;;;;;;;-0.74;98.22;101953.41;5037610;28;20037;-68
2023/02/12 05:59:15;;;;;;;50.55;26.23;;;;;;;-0.78;97.93;101952.56;5037869;28;20044;-68
2023/02/12 06:01:42;;;;;;;49.42;26.17;;;;;;;-0.72;98.12;101972.69;5045592;28;20123;-68
2023/02/12 06:04:13;;;;;;;49.65;24.85;;;;;;;-0.84;98.51;101967.63;5057365;28;20392;-68
2023/02/12 06:06:42;;;;;;;55.10;26.73;;;;;;;-0.77;98.04;101979.78;5049722;28;20111;-68
2023/02/12 06:09:12;;;;;;;56.05;27.27;;;;;;;-0.80;98.15;101991.22;5048476;28;20032;-68
2023/02/12 06:11:38;;;;;;;50.72;26.65;;;;;;;-0.81;98.56;101989.50;5049469;28;20033;-68
2023/02/12 06:14:05;;;;;;;54.60;27.10;;;;;;;-0.90;98.47;101976.47;5049106;28;20621;-68
2023/02/12 06:16:31;;;;;;;57.70;27.85;;;;;;;-0.81;98.92;102002.66;5047236;28;20462;-68
2023/02/12 06:18:57;;;;;;;50.30;25.83;;;;;;;-0.89;99.26;101985.25;5044972;28;20468;-68
2023/02/12 06:21:25;;;;;;;52.08;27.95;;;;;;;-0.85;98.67;101998.34;5060356;28;20032;-68
2023/02/12 06:23:52;;;;;;;59.45;27.55;;;;;;;-0.80;99.05;102014.94;5047760;28;20033;-68
2023/02/12 06:26:18;;;;;;;60.03;28.52;;;;;;;-0.86;99.07;102008.91;5032436;28;20044;-69
2023/02/12 06:28:44;;;;;;;60.00;30.42;;;;;;;-0.91;99.27;102001.06;5041080;28;20032;-68
2023/02/12 06:31:22;;;;;;;57.80;30.25;;;;;;;-0.80;99.21;102008.81;5048289;28;20043;-68
2023/02/12 06:33:48;;;;;;;64.47;31.58;;;;;;;-0.76;99.52;102018.41;5049520;28;20052;-68
2023/02/12 06:36:15;;;;;;;58.40;31.30;;;;;;;-0.74;100.00;102019.25;5041429;28;20052;-68
2023/02/12 06:38:40;;;;;;;58.67;29.98;;;;;;;-0.70;100.00;102028.84;5047533;28;20486;-68
2023/02/12 06:41:06;;;;;;;56.58;31.55;;;;;;;-0.71;100.00;102020.06;5045039;28;20055;-68
2023/02/12 06:43:31;;;;;;;59.20;29.90;;;;;;;-0.68;100.00;102024.44;5043510;28;20057;-68
2023/02/12 06:46:00;;;;;;;65.45;32.50;;;;;;;-0.64;100.00;102028.78;5042155;28;20020;-68
2023/02/12 06:48:26;;;;;;;61.78;31.58;;;;;;;-0.59;100.00;102026.91;5039359;28;20187;-68
2023/02/12 06:50:51;;;;;;;66.45;32.38;;;;;;;-0.57;100.00;102038.31;5046118;28;20032;-68
2023/02/12 06:53:17;;;;;;;64.97;33.38;;;;;;;-0.48;100.00;102059.28;5047428;28;20045;-68
2023/02/12 06:55:42;;;;;;;65.07;34.15;;;;;;;-0.45;100.00;102049.53;5043018;28;20044;-68
2023/02/12 06:58:07;;;;;;;66.57;30.90;;;;;;;-0.40;100.00;102046.81;5052125;28;20391;-68
2023/02/12 07:00:33;;;;;;;70.53;33.88;;;;;;;-0.28;100.00;102055.44;5042006;28;20032;-69
2023/02/12 07:02:58;;;;;;;67.90;31.80;;;;;;;-0.24;100.00;102058.88;5044876;28;20032;-68
2023/02/12 07:05:24;;;;;;;65.45;31.73;;;;;;;-0.12;100.00;102058.69;5046330;28;20025;-68
2023/02/12 07:07:50;;;;;;;68.20;33.20;;;;;;;-0.05;100.00;102057.69;5044958;28;20461;-68
2023/02/12 07:10:16;;;;;;;65.93;33.92;;;;;;;0.00;100.00;102047.94;5045505;28;20056;-68
2023/02/12 07:12:41;;;;;;;67.97;34.40;;;;;;;0.13;100.00;102061.78;5042397;28;20038;-68
2023/02/12 07:15:07;;;;;;;72.30;37.17;;;;;;;0.24;100.00;102057.16;5041485;28;20392;-67
2023/02/12 07:17:33;;;;;;;71.63;38.83;;;;;;;0.37;100.00;102070.13;5039993;28;20048;-68
2023/02/12 07:19:58;;;;;;;72.07;37.70;;;;;;;0.49;100.00;102069.91;5044779;28;20027;-68
2023/02/12 07:22:24;;;;;;;67.57;37.53;;;;;;;0.56;100.00;102054.78;5039829;28;20064;-68
2023/02/12 07:24:50;;;;;;;75.45;39.22;;;;;;;0.64;100.00;102059.03;5041508;28;20025;-68
2023/02/12 07:27:16;;;;;;;74.18;38.42;;;;;;;0.70;100.00;102063.31;5039370;28;20167;-68
2023/02/12 07:29:44;;;;;;;70.97;39.58;;;;;;;0.78;100.00;102072.84;5046775;28;20516;-68
2023/02/12 07:32:10;;;;;;;73.68;41.33;;;;;;;0.85;100.00;102079.72;5038441;28;20021;-68
2023/02/12 07:34:35;;;;;;;79.60;42.47;;;;;;;0.84;100.00;102074.47;5039083;28;20087;-68
2023/02/12 07:37:00;;;;;;;78.55;42.17;;;;;;;0.86;100.00;102064.75;5040787;28;20032;-67
2023/02/12 07:39:26;;;;;;;80.47;42.85;;;;;;;0.95;100.00;102070.72;5043172;28;20029;-68
2023/02/12 07:41:51;;;;;;;84.68;45.40;;;;;;;1.07;100.00;102090.72;5038475;28;20060;-67
2023/02/12 07:44:17;;;;;;;92.65;47.83;;;;;;;1.13;100.00;102098.53;5041866;28;20203;-68
2023/02/12 07:46:45;;;;;;;88.60;48.58;;;;;;;1.24;100.00;102105.34;5049007;28;20500;-67
2023/02/12 07:49:19;;;;;;;92.72;47.17;;;;;;;1.30;100.00;102097.28;5042939;28;20147;-67
2023/02/12 07:51:45;;;;;;;;;;;;;;;1.39;100.00;102096.19;5038609;28;20021;-69
2023/02/12 07:54:11;;;;;;;83.07;44.45;;;;;;;1.47;100.00;102092.47;5041749;28;20445;-68
2023/02/12 07:56:38;;;;;;;86.60;44.55;;;;;;;1.48;100.00;102081.00;5038563;28;20037;-68
2023/02/12 07:59:07;;;;;;;79.57;43.42;;;;;;;1.64;100.00;102106.19;5055484;28;20036;-68
2023/02/12 08:01:40;;;;;;;80.85;44.97;;;;;;;1.74;100.00;102114.78;5054607;28;20036;-68
2023/02/12 08:04:08;;;;;;;84.45;46.72;;;;;;;1.90;100.00;102114.38;5053380;28;20398;-68
2023/02/12 08:06:37;;;;;;;94.80;49.85;;;;;;;2.03;100.00;102121.09;5053423;28;20033;-68
2023/02/12 08:09:05;;;;;;;94.95;48.13;;;;;;;2.09;100.00;102118.31;5042492;28;20476;-68
2023/02/12 08:11:32;;;;;;;88.90;48.70;;;;;;;2.24;100.00;102136.47;5044322;28;20024;-68
2023/02/12 08:13:59;;;;;;;103.75;54.50;;;;;;;2.19;100.00;102109.25;5041866;28;21695;-68
2023/02/12 08:16:27;;;;;;;107.53;56.80;;;;;;;2.40;100.00;102134.31;5047140;28;20055;-68
2023/02/12 08:18:52;;;;;;;103.03;55.33;;;;;;;2.43;100.00;102127.13;5046667;28;20568;-69
2023/02/12 08:21:20;;;;;;;104.93;54.80;;;;;;;2.43;100.00;102121.00;5042637;28;20029;-68
2023/02/12 08:23:49;;;;;;;102.97;54.40;;;;;;;2.59;100.00;102142.63;5046644;28;20086;-67
2023/02/12 08:26:17;;;;;;;101.68;53.83;;;;;;;2.67;100.00;102143.31;5050529;28;20040;-68
2023/02/12 08:28:54;;;;;;;91.72;50.95;;;;;;;2.76;100.00;102143.94;5048087;28;20172;-69
2023/02/12 08:31:23;;;;;;;84.40;48.05;;;;;;;2.88;100.00;102153.34;5050182;28;20029;-68
2023/02/12 08:33:50;;;;;;;76.60;45.30;;;;;;;2.98;100.00;102165.41;5044621;28;20056;-69
2023/02/12 08:36:18;;;;;;;83.50;44.10;;;;;;;3.08;100.00;102153.66;5066555;28;20031;-68
2023/02/12 08:38:45;;;;;;;73.00;41.17;;;;;;;3.22;100.00;102159.44;5050819;28;20028;-69
2023/02/12 08:41:22;;;;;;;67.13;40.20;;;;;;;3.36;100.00;102170.53;5052222;28;20438;-69
2023/02/12 08:43:48;;;;;;;59.40;34.97;;;;;;;3.40;100.00;102157.13;5047467;28;20360;-69
2023/02/12 08:46:22;;;;;;;69.22;36.72;;;;;;;3.63;100.00;102175.00;5049012;28;20032;-69
2023/02/12 08:48:52;;;;;;;56.05;33.70;;;;;;;3.75;100.00;102161.38;5046684;28;20065;-69
2023/02/12 08:51:20;;;;;;;62.70;34.97;;;;;;;3.88;100.00;102168.94;5041592;28;20043;-69
2023/02/12 08:53:47;;;;;;;63.22;36.30;;;;;;;4.00;100.00;102180.94;5043071;28;20057;-69
2023/02/12 08:56:15;;;;;;;58.83;34.90;;;;;;;4.15;100.00;102191.06;5043669;28;20036;-69
2023/02/12 08:58:41;;;;;;;69.60;40.85;;;;;;;4.27;99.61;102180.06;5040001;28;20044;-68
2023/02/12 09:01:13;;;;;;;61.35;35.83;;;;;;;4.41;98.82;102175.16;5055237;28;20100;-69
2023/02/12 09:03:38;;;;;;;70.35;39.70;;;;;;;4.51;97.91;102171.28;5048172;28;20056;-69
2023/02/12 09:06:06;;;;;;;58.80;35.42;;;;;;;4.51;96.86;102153.56;5049468;28;20056;-69
2023/02/12 09:08:32;;;;;;;58.42;33.67;;;;;;;4.69;95.58;102199.91;5056175;28;20025;-69
2023/02/12 09:10:57;;;;;;;76.78;41.67;;;;;;;4.72;94.07;102184.72;5049092;28;20039;-69
2023/02/12 09:13:23;;;;;;;66.15;37.85;;;;;;;4.75;92.07;102183.75;5046774;28;20451;-69
2023/02/12 09:15:49;;;;;;;66.45;38.88;;;;;;;4.83;90.12;102197.63;5046084;28;20024;-68
2023/02/12 09:18:15;;;;;;;65.47;38.15;;;;;;;4.83;89.47;102197.63;5048633;28;20072;-68
2023/02/12 09:20:43;;;;;;;70.18;40.75;;;;;;;4.87;89.06;102199.25;5049135;28;20037;-69
2023/02/12 09:23:10;;;;;;;78.00;43.30;;;;;;;4.82;88.77;102195.91;5042529;28;20656;-68
2023/02/12 09:25:41;;;;;;;73.18;42.85;;;;;;;4.96;88.47;102211.38;5035648;28;20447;-68
2023/02/12 09:28:06;;;;;;;72.63;41.22;;;;;;;5.05;86.97;102205.72;5050028;28;20040;-69
2023/02/12 09:30:32;;;;;;;69.78;41.85;;;;;;;5.21;85.91;102214.91;5040804;28;20044;-69
2023/02/12 09:32:57;;;;;;;75.10;42.25;;;;;;;5.33;84.50;102210.03;5043011;28;20041;-68
2023/02/12 09:35:23;;;;;;;70.70;43.75;;;;;;;5.57;83.23;102214.44;5041631;28;20041;-68
2023/02/12 09:37:49;;;;;;;76.30;43.30;;;;;;;5.75;81.41;102212.88;5043063;28;20040;-68
2023/02/12 09:40:58;;;;;;;72.05;40.25;;;;;;;5.92;78.54;102222.00;5045989;28;20032;-68
2023/02/12 09:43:38;;;;;;;71.35;40.97;;;;;;;6.02;76.81;102225.16;5036012;28;20751;-69
2023/02/12 09:46:27;;;;;;;72.32;39.80;;;;;;;6.03;76.45;102218.94;5046313;28;20571;-68
2023/02/12 09:49:08;;;;;;;68.78;39.72;;;;;;;6.08;76.60;102222.28;5040333;28;20056;-68
2023/02/12 09:51:36;;;;;;;59.47;36.03;;;;;;;6.19;76.06;102228.06;5045578;28;20042;-68
2023/02/12 09:54:06;;;;;;;63.92;37.92;;;;;;;6.23;75.63;102238.50;5042896;28;20045;-68
2023/02/12 09:56:36;;;;;;;64.88;37.97;;;;;;;6.32;75.27;102247.97;5031570;28;20041;-69
2023/02/12 09:59:05;;;;;;;67.40;40.13;;;;;;;6.42;75.37;102244.00;5039154;28;20114;-68
2023/02/12 10:01:31;;;;;;;72.30;42.25;;;;;;;6.54;75.10;102233.69;5037279;28;20111;-68
2023/02/12 10:03:57;;;;;;;73.95;44.72;;;;;;;6.69;74.46;102240.19;5041488;28;22130;-69
2023/02/12 10:06:29;;;;;;;68.18;41.90;;;;;;;6.92;73.11;102234.78;5046687;28;20127;-69
2023/02/12 10:09:10;;;;;;;69.25;40.50;;;;;;;7.34;71.32;102240.06;5036050;28;20048;-70
2023/02/12 10:11:49;;;;;;;63.72;39.63;;;;;;;7.88;68.52;102234.91;5046725;28;20074;-69
2023/02/12 10:14:25;;;;;;;68.55;41.20;;;;;;;8.55;65.01;102239.66;5043719;28;20108;-70
2023/02/12 10:17:34;;;;;;;60.40;38.80;;;;;;;9.11;61.31;102228.81;5047261;28;20053;-69
2023/02/12 10:20:27;;;;;;;62.58;37.65;;;;;;;9.59;59.89;102244.13;5043558;28;20114;-68
2023/02/12 10:23:07;;;;;;;59.75;38.80;;;;;;;9.70;59.16;102250.63;5040502;28;20191;-69
2023/02/12 10:26:03;;;;;;;60.75;37.90;;;;;;;9.59;58.78;102238.75;5044977;28;20024;-68
2023/02/12 10:28:37;;;;;;;59.28;38.38;;;;;;;9.37;59.36;102224.75;5050546;28;20396;-68
2023/02/12 10:31:18;;;;;;;60.17;38.15;;;;;;;9.24;59.54;102246.84;5039564;28;20032;-68
2023/02/12 10:33:47;;;;;;;58.75;34.80;;;;;;;9.03;59.59;102233.69;5035240;28;20075;-69
2023/02/12 10:36:22;;;;;;;59.28;37.05;;;;;;;8.88;59.56;102242.50;5043267;28;20032;-68
2023/02/12 10:39:00;;;;;;;57.55;37.33;;;;;;;8.75;59.72;102236.03;5044087;28;20530;-69
2023/02/12 10:41:28;;;;;;;58.03;37.03;;;;;;;8.74;60.13;102242.31;5048154;28;20383;-68
2023/02/12 10:43:54;;;;;;;61.47;37.35;;;;;;;8.68;59.56;102246.13;5038930;28;20036;-69
2023/02/12 10:46:20;;;;;;;56.35;36.65;;;;;;;8.64;58.96;102243.72;5043890;28;22558;-69
2023/02/12 10:48:52;;;;;;;60.08;37.10;;;;;;;8.63;59.19;102245.53;5040931;28;20043;-67
2023/02/12 10:52:07;;;;;;;60.30;37.58;;;;;;;8.53;59.14;102238.91;5046042;28;20401;-68
2023/02/12 10:54:50;;;;;;;58.25;36.55;;;;;;;8.55;59.24;102249.50;5042046;28;20583;-68
2023/02/12 10:57:22;;;;;;;57.17;33.70;;;;;;;8.53;59.84;102251.38;5047819;28;20118;-69
2023/02/12 10:59:52;;;;;;;63.47;36.10;;;;;;;8.56;58.78;102252.13;5043294;28;20435;-68
2023/02/12 11:02:32;;;;;;;59.03;36.70;;;;;;;8.48;59.41;102248.94;5048985;28;20876;-68
2023/02/12 11:05:14;;;;;;;59.45;36.88;;;;;;;8.48;59.87;102242.75;5045495;28;20074;-68
2023/02/12 11:07:49;;;;;;;51.97;33.40;;;;;;;8.43;58.92;102240.28;5046119;28;20048;-69
2023/02/12 11:10:33;;;;;;;52.90;34.33;;;;;;;8.46;58.96;102247.28;5034708;28;20064;-68
2023/02/12 11:13:00;;;;;;;54.65;32.42;;;;;;;8.46;59.41;102240.13;5043151;28;20029;-68
2023/02/12 11:15:30;;;;;;;45.75;30.00;;;;;;;8.44;59.91;102242.00;5042026;28;20048;-68
2023/02/12 11:18:00;;;;;;;52.78;32.47;;;;;;;8.44;59.57;102242.00;5041704;28;20033;-67
2023/02/12 11:20:37;;;;;;;51.63;32.83;;;;;;;8.41;59.61;102236.81;5042070;28;20020;-67
2023/02/12 11:23:08;;;;;;;57.00;33.50;;;;;;;8.41;59.48;102239.47;5041565;28;20033;-68
2023/02/12 11:25:35;;;;;;;51.15;33.63;;;;;;;8.41;59.54;102228.78;5034937;28;20471;-66
2023/02/12 11:28:21;;;;;;;52.33;32.47;;;;;;;8.44;59.89;102246.47;5035902;28;20032;-67
2023/02/12 11:30:51;;;;;;;44.08;27.80;;;;;;;8.46;59.56;102249.97;5057699;28;20071;-66
2023/02/12 11:33:30;;;;;;;43.67;27.25;;;;;;;8.43;59.29;102245.63;5042182;28;20036;-67
2023/02/12 11:36:00;;;;;;;44.67;28.50;;;;;;;8.40;59.51;102244.91;5036901;28;20091;-67
2023/02/12 11:38:50;;;;;;;45.17;27.65;;;;;;;8.45;59.01;102245.56;5043271;28;20037;-67